^^

METAR Reports from Weather Stations

Northern Greece


 What is a METAR ??? 

First is the nearest Weather Station (Kato Pylea 0km) and
finally the most distance (Orestiada 316km).
Also some reports have less data, because the original
ones are not complete or have wrong format.
Go to METAR Reports from Airports )  
Choose Region:  Northern Greece  -  Central, West & Southern Greece  -  Aegean Islands & Crete
Alphabetical Quick Jump List to the 72 Weather Stations
According to the administrative division of the «Kallikratis Program»
Central Macedonia  (Chalkidiki: Kassandria  Nea Moudania  Polygyros  Stratoni) (Chalkidiki-Mount Athos: Vatopedi-Monastery)
(Imathia: Naousa  3-5 Pigadia-Ski Resort  Seli-Ski Resort  Veria) (Kilkis: Kilkis) (Pella: Aridea  Kaimaktsalan-Ski Resort) (Pieria: Dion  Makrigialos) (Serres: Kerkini  Lailias-Mountain Hut  Proti  Serres) (Thessaloniki: Asprovalta  Chortiatis  Eptapyrgio  Filyro  Historical Center  Ionia  Kalamaria  Kardia  Kato Pylea  Kato Toumpa  Langadas  Nea Krini  Oreokastro  Pylea  Trilofos)
East Macedonia and Thrace  (Drama: Drama  Falakro-Ski Resort  Falakro-Kartalka peak  Nevrokopi) (Evros: Alexandroupoli  Didymoticho  Metaxades  Orestiada  Samothraki) (Kavala: Kavala  Palaiochori  Vounochori) (Rhodope: Komotini) (Xanthi: Xanthi)
Thessaly  (Karditsa: Karditsa  Kastania) (Larissa: Larissa) (Magnesia: Chania  Portaria  Pteleos  Volos  Volos-Center  Zagora)
(Sporades: Alonnisos  Skiathos  Skopelos) (Trikala: Kalampaka  Pertouli)
West Macedonia  (Florina: Amyntaio-PPC  Florina  Variko) (Grevena: Grevena  Samarina  Vasilitsa) (Kastoria: Gramos  Kastoria  Kleisoura) (Kozani: Notio Pedio-PPC  Ptolemaida)
(P.W.S.)Personal Weather Station - (N.O.A.)National Observatory of Athens - (S.R.F.)Snow Report Forum
(P.W.S.)  Kato Pylea  (Station:1036)
Pylea Chortiatis - Thessaloniki - C. Macedonia
Lat: 40.57 - Long: 22.97 - Elev: 21m

Vouhead Weather
Updated: 19/05/2022 08:23
NOT CURRENT METAR
Clear
Clear
 Wind from calm
Wind: Calm 
Temperature: 16°C
Dew Point: 10°C
Humidity: 68%
Barometer: 1028 hPa
Clouds: Clear
Visibility: 9 km
2022/05/19 05:23 1036 190523Z 00000KT 9000 SKC 16/10 Q1028
(P.W.S.)  Nea Krini  (Station:1272)
Kalamaria - Thessaloniki - C. Macedonia
Lat: 40.57 - Long: 22.96 - Elev: 17m
Distance from Vouhead Weather: (WNW) 1,5km
Updated: 22/10/2018 19:34
NOT CURRENT METAR
Partly Cloudy
Partly Cloudy
 Wind from NW
Wind: NW 2 km/h
Temperature: 17°C
Dew Point: 13°C
Humidity: 77%
Barometer: 1019 hPa
Clouds: Partly Cloudy
Visibility: 8 km
Cloud analysis: Partly Cloudy 488m
2018/10/22 16:34 1272 221634Z 31501KT 8000 SCT016 17/13 Q1019
 
(P.W.S.)  Kalamaria  (Station:1034)
Kalamaria - Thessaloniki - C. Macedonia
Lat: 40.58 - Long: 22.96 - Elev: 60m
Distance from Vouhead Weather: (NNW) 2km
Updated: 18/04/2019 06:49
NOT CURRENT METAR
Partly Cloudy
Partly Cloudy
 Wind from SE
Wind: SE 2 km/h
Temperature: 12°C
Dew Point: 6°C
Humidity: 67%
Barometer: 1020 hPa
Clouds: Partly Cloudy
Visibility: 9 km
Cloud analysis: Partly Cloudy 732m
2019/04/18 03:49 1034 180349Z 13501KT 9000 SCT024 12/06 Q1020
(P.W.S.)  Pylea  (Station:1124)
Pylea Chortiatis - Thessaloniki - C. Macedonia
Lat: 40.60 - Long: 22.98 - Elev: 145m
Distance from Vouhead Weather: (NNE) 4km
Updated: 11/11/2019 10:34
NOT CURRENT METAR
Few Clouds
Few Clouds
 Wind from calm
Wind: Calm 
Temperature: 18°C
Dew Point: 12°C
Humidity: 68%
Clouds: Few Clouds
Visibility: 9 km
Cloud analysis: Few Clouds 701m
2019/11/11 08:34 1124 110834Z 00000KT 9000 FEW023 18/12 Q045
 
(P.W.S.)  Kato Toumpa  (Station:1242)
Thessaloniki - Thessaloniki - C. Macedonia
Lat: 40.61 - Long: 22.97 - Elev: 60m
Distance from Vouhead Weather: (N) 5km
Updated: 01/09/2015 00:05
NOT CURRENT METAR
Clear
Clear
 Wind from ENE
Wind: ENE 4 km/h
Temperature: 32°C
Dew Point: 16°C
Humidity: 38%
Barometer: 1016 hPa
Clouds: Clear
Visibility: 10 km
2015/08/31 21:05 1242 312105Z 06702KT 9999 SKC 32/16 Q1016
(P.W.S.)  Historical Center  (Station:1031)
Thessaloniki - Thessaloniki - C. Macedonia
Lat: 40.63 - Long: 22.95 - Elev: 34m
Distance from Vouhead Weather: (NNW) 7km
Updated: 23/04/2021 12:50
NOT CURRENT METAR
Overcast
Overcast
 Wind from NNW
Wind: NNW 2 km/h
Temperature: 15°C
Dew Point: 12°C
Humidity: 82%
Barometer: 1021 hPa
Clouds: Overcast
Visibility: 8 km
Cloud analysis: Overcast 427m
2021/04/23 09:50 1031 230950Z 33701KT 8000 OVC014 15/12 Q1021
 
(P.W.S.)  Eptapyrgio  (Station:1032)
Neapoli Sykies - Thessaloniki - C. Macedonia
Lat: 40.64 - Long: 22.96 - Elev: 200m
Distance from Vouhead Weather: (NNW) 8km
Updated: 05/04/2021 16:49
NOT CURRENT METAR
Overcast
Overcast
 Wind from SE
Wind: SE 2 km/h
Temperature: 14°C
Dew Point: 5°C
Humidity: 55%
Barometer: 1013 hPa
Clouds: Overcast
Visibility: 10 km
Cloud analysis: Overcast 1067m
2021/04/05 13:49 1032 051349Z 13501KT 9999 OVC035 14/05 Q1013
(P.W.S.)  Kardia  (Station:1321)
Thermi - Thessaloniki - C. Macedonia
Lat: 40.47 - Long: 22.99 - Elev: 180m
Distance from Vouhead Weather: (SSE) 11km
Updated: 17/01/2019 15:34
NOT CURRENT METAR
Clear
Clear
 Wind from calm
Wind: Calm 
Temperature: 6°C
Dew Point: 1°C
Humidity: 71%
Barometer: 1018 hPa
Clouds: Clear
Visibility: 10 km
2019/01/17 13:34 1321 171334Z 00000KT 9999 SKC 06/01 Q1018
 
(P.W.S.)  Trilofos  (Station:1315)
Thermi - Thessaloniki - C. Macedonia
Lat: 40.46 - Long: 22.97 - Elev: 185m
Distance from Vouhead Weather: (S) 11km
Updated: 08/02/2016 23:20
NOT CURRENT METAR
Partly Cloudy
Partly Cloudy
 Wind from E
Wind: E 7 km/h
Temperature: 10°C
Wind Chill: 9°C
Dew Point: 6°C
Humidity: 76%
Barometer: 1026 hPa
Clouds: Partly Cloudy
Visibility: 9 km
Cloud analysis: Partly Cloudy 518m
2016/02/08 21:20 1315 082120Z 09004KT 9000 SCT017 10/06 Q1026
(S.R.F.)  Chortiatis  (Station:1096)
Pylea Chortiatis - Thessaloniki - C. Macedonia
Lat: 40.62 - Long: 23.07 - Elev: 570m
Distance from Vouhead Weather: (ENE) 12km
Updated: 05/03/2018 10:34
NOT CURRENT METAR
Overcast
Overcast
 Wind from calm
Wind: Calm 
Temperature: 7°C
Dew Point: 6°C
Humidity: 93%
Clouds: Overcast
Visibility: 6 km
Cloud analysis: Overcast 914m
2018/03/05 08:34 1096 050834Z 00000KT 6000 OVC030 07/06 Q00
 
(P.W.S.)  Ionia  (Station:1033)
Delta - Thessaloniki - C. Macedonia
Lat: 40.66 - Long: 22.88 - Elev: 32m
Distance from Vouhead Weather: (NNW) 13km
Updated: 28/09/2018 07:18
NOT CURRENT METAR
Partly Cloudy
Partly Cloudy
 Wind from WNW
Wind: WNW 6 km/h
Temperature: 10°C
Dew Point: 4°C
Humidity: 67%
Barometer: 1021 hPa
Clouds: Partly Cloudy
Visibility: 9 km
Cloud analysis: Partly Cloudy 671m
2018/09/28 04:18 1033 280418Z 29203KT 9000 SCT022 10/04 Q1021
(P.W.S.)  Filyro  (Station:1197)
Pylea Chortiatis - Thessaloniki - C. Macedonia
Lat: 40.69 - Long: 23.00 - Elev: 400m
Distance from Vouhead Weather: (NNE) 14km
Updated: 12/04/2016 18:35
NOT CURRENT METAR
Clear
Clear
 Wind from N
Wind: N 9 km/h
Temperature: 28°C
Dew Point: 8°C
Humidity: 28%
Barometer: 1011 hPa
Clouds: Clear
Visibility: 10 km
2016/04/12 15:35 1197 121535Z 36005KT 9999 SKC 28/08 Q1011
 
(P.W.S.)  Oreokastro  (Station:1251)
Oreokastro - Thessaloniki - C. Macedonia
Lat: 40.72 - Long: 22.92 - Elev: 240m
Distance from Vouhead Weather: (NNW) 18km
Updated: 19/05/2022 08:05
NOT CURRENT METAR
Clear
Clear
 Wind from calm
Wind: Calm 
Temperature: 14°C
Dew Point: 10°C
Humidity: 77%
Barometer: 1028 hPa
Clouds: Clear
Visibility: 8 km
2022/05/19 05:05 1251 190505Z 00000KT 8000 SKC 14/10 Q1028
(N.O.A.)  LGA5 - Langadas  (Station:1127)
Langadas - Thessaloniki - C. Macedonia
Lat: 40.75 - Long: 23.07 - Elev: 87m
Distance from Vouhead Weather: (NNE) 22km
Updated: 02/11/2017 14:04
NOT CURRENT METAR
Clear
Clear
 Wind from calm
Wind: Calm 
Temperature: 16°C
Dew Point: 5°C
Humidity: 48%
Barometer: 1020 hPa
Clouds: Clear
Visibility: 10 km
2017/11/02 12:04 1127 021204Z 00000KT 9999 SKC 16/05 Q1020
 
(P.W.S.)  Makrigialos  (Station:1324)
Pydna Kolindros - Pieria - C. Macedonia
Lat: 40.42 - Long: 22.61 - Elev: 60m
Distance from Vouhead Weather: (WSW) 35km
Updated: 19/05/2022 08:05
NOT CURRENT METAR
Clear
Clear
 Wind from calm
Wind: Calm 
Temperature: 15°C
Dew Point: 10°C
Humidity: 72%
Barometer: 1028 hPa
Clouds: Clear
Visibility: 8 km
2022/05/19 05:05 1324 190505Z 00000KT 8000 SKC 15/10 Q1028
(N.O.A.)  LG33 - Polygyros  (Station:1045)
Polygyros - Chalkidiki - C. Macedonia
Lat: 40.38 - Long: 23.44 - Elev: 580m
Distance from Vouhead Weather: (ESE) 44km
Updated: 02/11/2017 14:04
NOT CURRENT METAR
Few Clouds
Few Clouds
 Wind from NNW
Wind: NNW 7 km/h
Temperature: 14°C
Dew Point: 4°C
Humidity: 51%
Barometer: 1020 hPa
Clouds: Few Clouds
Visibility: 10 km
Cloud analysis: Few Clouds 1250m
2017/11/02 12:04 1045 021204Z 33704KT 9999 FEW041 14/04 Q1020
 
(P.W.S.)  Nea Moudania  (Station:1393)
Nea Propontida - Chalkidiki - C. Macedonia
Lat: 40.24 - Long: 23.28 - Elev: 4m
Distance from Vouhead Weather: (SSE) 45km
Updated: 07/05/2020 09:50
NOT CURRENT METAR

 
Visibility: 0 mile
2020/05/07 06:50 1393 070650Z 0004KT 8000 SCT014 15/11 Q1015
(N.O.A.)  LG42 - Kilkis  (Station:1042)
Kilkis - Kilkis - C. Macedonia
Lat: 41.00 - Long: 22.87 - Elev: 290m
Distance from Vouhead Weather: (NNW) 48km
Updated: 02/11/2017 13:49
NOT CURRENT METAR
Clear
Clear
 Wind from W
Wind: W 4 km/h
Temperature: 15°C
Dew Point: 5°C
Humidity: 51%
Barometer: 1021 hPa
Clouds: Clear
Visibility: 10 km
2017/11/02 11:49 1042 021149Z 27002KT 9999 SKC 15/05 Q1021
 
(N.O.A.)  LG55 - Dion  (Station:1039)
Dion Olympos - Pieria - C. Macedonia
Lat: 40.19 - Long: 22.43 - Elev: 50m
Distance from Vouhead Weather: (SW) 60km
Updated: 02/11/2017 14:04
NOT CURRENT METAR
Few Clouds
Few Clouds
 Wind from SE
Wind: SE 4 km/h
Temperature: 16°C
Dew Point: 8°C
Humidity: 59%
Barometer: 1020 hPa
Clouds: Few Clouds
Visibility: 10 km
Cloud analysis: Few Clouds 975m
2017/11/02 12:04 1039 021204Z 13502KT 9999 FEW032 16/08 Q1020
(P.W.S.)  LGE5 - Veria  (Station:1187)
Veria - Imathia - C. Macedonia
Lat: 40.52 - Long: 22.21 - Elev: 105m
Distance from Vouhead Weather: (W) 65km
Updated: 27/08/2019 23:34
NOT CURRENT METAR
Few Clouds
Few Clouds
 Wind from calm
Wind: Calm 
Temperature: 26°C
Dew Point: 13°C
Humidity: 45%
Barometer: 1012 hPa
Clouds: Few Clouds
Visibility: 10 km
Cloud analysis: Few Clouds 1554m
2019/08/27 20:34 1187 272034Z 00000KT 9999 FEW051 26/13 Q1012
 
(P.W.S.)  Asprovalta  (Station:1302)
Volvi - Thessaloniki - C. Macedonia
Lat: 40.76 - Long: 23.72 - Elev: 6m
Distance from Vouhead Weather: (ENE) 66km
Updated: 02/11/2017 14:04
NOT CURRENT METAR
Few Clouds
Few Clouds
 Wind from E
Wind: E 6 km/h
Temperature: 17°C
Dew Point: 8°C
Humidity: 56%
Barometer: 1020 hPa
Clouds: Few Clouds
Visibility: 10 km
Cloud analysis: Few Clouds 1067m
2017/11/02 12:04 1302 021204Z 09003KT 9999 FEW035 17/08 Q1020
(N.O.A.)  LGO9 - Kassandria  (Station:1361)
Kassandra - Chalkidiki - C. Macedonia
Lat: 40.06 - Long: 23.43 - Elev: 29m
Distance from Vouhead Weather: (SSE) 68km
Updated: 02/11/2017 14:04
NOT CURRENT METAR
Few Clouds
Few Clouds
 Wind from SSW
Wind: SSW 7 km/h
Temperature: 16°C
Dew Point: 6°C
Humidity: 52%
Barometer: 1020 hPa
Clouds: Few Clouds
Visibility: 10 km
Cloud analysis: Few Clouds 1250m
2017/11/02 12:04 1361 021204Z 20204KT 9999 FEW041 16/06 Q1020
 
(N.O.A.)  LGJ1 - Stratoni  (Station:1288)
Aristotelis - Chalkidiki - C. Macedonia
Lat: 40.51 - Long: 23.83 - Elev: 5m
Distance from Vouhead Weather: (E) 72km
Updated: 02/11/2017 14:04
NOT CURRENT METAR
Partly Cloudy
Partly Cloudy
 Wind from calm
Wind: Calm 
Temperature: 14°C
Dew Point: 8°C
Humidity: 67%
Barometer: 1020 hPa
Clouds: Partly Cloudy
Visibility: 9 km
Cloud analysis: Partly Cloudy 701m
2017/11/02 12:04 1288 021204Z 00000KT 9000 SCT023 14/08 Q1020
(N.O.A.)  LGD9 - Kerkini  (Station:1176)
Sintiki - Serres - C. Macedonia
Lat: 41.22 - Long: 23.08 - Elev: 115m
Distance from Vouhead Weather: (NNE) 73km
Updated: 02/11/2017 14:04
NOT CURRENT METAR
Few Clouds
Few Clouds
 Wind from ENE
Wind: ENE 2 km/h
Temperature: 14°C
Dew Point: 5°C
Humidity: 55%
Barometer: 1020 hPa
Clouds: Few Clouds
Visibility: 10 km
Cloud analysis: Few Clouds 1036m
2017/11/02 12:04 1176 021204Z 06701KT 9999 FEW034 14/05 Q1020
 
(P.W.S.)  Serres  (Station:1390)
Serres - Serres - C. Macedonia
Lat: 41.08 - Long: 23.55 - Elev: 34m
Distance from Vouhead Weather: (NE) 75km
Updated: 02/11/2017 14:04
NOT CURRENT METAR
Few Clouds
Few Clouds
 Wind from SW
Wind: SW 4 km/h
Temperature: 16°C
Dew Point: 6°C
Humidity: 52%
Barometer: 1021 hPa
Clouds: Few Clouds
Visibility: 10 km
Cloud analysis: Few Clouds 1097m
2017/11/02 12:04 1390 021204Z 22502KT 9999 FEW036 16/06 Q1021
(N.O.A.)  LG40 - Naousa  (Station:1043)
Naousa - Imathia - C. Macedonia
Lat: 40.63 - Long: 22.07 - Elev: 365m
Distance from Vouhead Weather: (WNW) 77km
Updated: 02/11/2017 14:04
NOT CURRENT METAR
Few Clouds
Few Clouds
 Wind from calm
Wind: Calm 
Temperature: 14°C
Dew Point: 5°C
Humidity: 55%
Barometer: 1021 hPa
Clouds: Few Clouds
Visibility: 10 km
Cloud analysis: Few Clouds 1097m
2017/11/02 12:04 1043 021204Z 00000KT 9999 FEW036 14/05 Q1021
 
(N.O.A.)  LG87 - Seli  (Station:1048)
(Ski Resort)
Veria - Imathia - C. Macedonia
Lat: 40.54 - Long: 22.01 - Elev: 1510m
Distance from Vouhead Weather: (W) 82km
Updated: 31/10/2017 13:34
NOT CURRENT METAR
Partly Cloudy
Partly Cloudy
 Wind from ESE
Wind: ESE 2 km/h
Temperature: 4°C
Dew Point: -2°C
Humidity: 65%
Barometer: 1024 hPa
Clouds: Partly Cloudy
Visibility: 10 km
Cloud analysis: Partly Cloudy 671m
2017/10/31 11:34 1048 311134Z 11201KT 9999 SCT022 04/M02 Q1024
(N.O.A.)  LGE8 - 3-5 Pigadia  (Station:1194)
(Ski Resort)
Naousa - Imathia - C. Macedonia
Lat: 40.64 - Long: 21.97 - Elev: 1430m
Distance from Vouhead Weather: (WNW) 85km
Updated: 08/04/2017 20:04
NOT CURRENT METAR
Partly Cloudy
Partly Cloudy
 Wind from NNE
Wind: NNE 4 km/h
Temperature: 7°C
Dew Point: 2°C
Humidity: 71%
Barometer: 1020 hPa
Clouds: Partly Cloudy
Visibility: 9 km
Cloud analysis: Partly Cloudy 579m
2017/04/08 17:04 1194 081704Z 02202KT 9000 SCT019 07/02 Q1020
 
(N.O.A.)  LGO1 - Aridea  (Station:1270)
Almopia - Pella - C. Macedonia
Lat: 40.98 - Long: 22.06 - Elev: 120m
Distance from Vouhead Weather: (WNW) 89km
Updated: 02/11/2017 14:04
NOT CURRENT METAR
Few Clouds
Few Clouds
 Wind from NE
Wind: NE 2 km/h
Temperature: 16°C
Dew Point: 5°C
Humidity: 48%
Barometer: 1019 hPa
Clouds: Few Clouds
Visibility: 10 km
Cloud analysis: Few Clouds 1280m
2017/11/02 12:04 1270 021204Z 04501KT 9999 FEW042 16/05 Q1019
(N.O.A.)  LG** - Lailias  (Station:1359)
(Mountain Hut)
Serres - Serres - C. Macedonia
Lat: 41.26 - Long: 23.59 - Elev: 1515m
Distance from Vouhead Weather: (NE) 93km
Updated: 02/11/2017 09:49
NOT CURRENT METAR
Partly Cloudy
Partly Cloudy
 Wind from calm
Wind: Calm 
Temperature: 5°C
Dew Point: -1°C
Humidity: 66%
Barometer: 1025 hPa
Clouds: Partly Cloudy
Visibility: 10 km
Cloud analysis: Partly Cloudy 701m
2017/11/02 07:49 1359 020749Z 00000KT 9999 SCT023 05/M01 Q1025
 
(P.W.S.)  Proti  (Station:1273)
Amfipoli - Serres - C. Macedonia
Lat: 40.94 - Long: 24.00 - Elev: 325m
Distance from Vouhead Weather: (ENE) 96km
Updated: 23/03/2021 02:05
NOT CURRENT METAR
Partly Cloudy
Partly Cloudy
 Wind from calm
Wind: Calm 
Temperature: 3°C
Dew Point: 2°C
Humidity: 93%
Barometer: 1007 hPa
Clouds: Partly Cloudy
Visibility: 6 km
Cloud analysis: Partly Cloudy 914m
2021/03/23 00:05 1273 230005Z 00000KT 6000 SCT030 03/02 Q1007
(N.O.A.)  LG** - (PPC) Notio Pedio  (Station:1347)
(PPC: Public Power Corporation)
Eordaia - Kozani - W. Macedonia
Lat: 40.45 - Long: 21.83 - Elev: 765m
Distance from Vouhead Weather: (WSW) 98km
Updated: 02/11/2017 14:04
NOT CURRENT METAR
Clear
Clear
 Wind from SW
Wind: SW 2 km/h
Temperature: 13°C
Dew Point: 4°C
Humidity: 55%
Barometer: 1021 hPa
Clouds: Clear
Visibility: 10 km
2017/11/02 12:04 1347 021204Z 22501KT 9999 SKC 13/04 Q1021
 
(N.O.A.)  LG93 - Kaimaktsalan  (Station:1101)
(Ski Resort)
Edessa - Pella - C. Macedonia
Lat: 40.94 - Long: 21.80 - Elev: 2090m
Distance from Vouhead Weather: (WNW) 107km
Updated: 02/11/2017 14:04
NOT CURRENT METAR
Few Clouds
Few Clouds
 Wind from WSW
Wind: WSW 17 km/h
Temperature: 5°C
Wind Chill: 2°C
Dew Point: -2°C
Humidity: 61%
Barometer: 1022 hPa
Clouds: Few Clouds
Visibility: 10 km
Cloud analysis: Few Clouds 884m
2017/11/02 12:04 1101 021204Z 24709KT 9999 FEW029 05/M02 Q1022
(N.O.A.)  LGC2 - Vatopedi Monastery  (Station:1151)
Mount Athos - Chalkidiki - C. Macedonia
Lat: 40.26 - Long: 24.24 - Elev: 25m
Distance from Vouhead Weather: (ESE) 108km
Updated: 02/11/2017 14:04
NOT CURRENT METAR
Few Clouds
Few Clouds
 Wind from NNW
Wind: NNW 6 km/h
Temperature: 15°C
Dew Point: 9°C
Humidity: 68%
Barometer: 1019 hPa
Clouds: Few Clouds
Visibility: 9 km
Cloud analysis: Few Clouds 701m
2017/11/02 12:04 1151 021204Z 33703KT 9000 FEW023 15/09 Q1019
 
(P.W.S.)  Palaiochori  (Station:1284)
Pangaio - Kavala - E. Macedonia & Thrace
Lat: 40.95 - Long: 24.18 - Elev: 130m
Distance from Vouhead Weather: (ENE) 109km
Updated: 19/05/2022 08:05
NOT CURRENT METAR
Partly Cloudy
Partly Cloudy
 Wind from N
Wind: N 2 km/h
Temperature: 14°C
Dew Point: 8°C
Humidity: 67%
Barometer: 1029 hPa
Clouds: Partly Cloudy
Visibility: 10 km
Cloud analysis: Partly Cloudy 792m
2022/05/19 05:05 1284 190505Z 36001KT 9999 SCT026 14/08 Q1029
(N.O.A.)  LG26 - Ptolemaida  (Station:1046)
Eordaia - Kozani - W. Macedonia
Lat: 40.51 - Long: 21.68 - Elev: 606m
Distance from Vouhead Weather: (W) 110km
Updated: 02/11/2017 14:04
NOT CURRENT METAR
Clear
Clear
 Wind from NNW
Wind: NNW 4 km/h
Temperature: 15°C
Dew Point: 4°C
Humidity: 48%
Barometer: 1019 hPa
Clouds: Clear
Visibility: 10 km
2017/11/02 12:04 1046 021204Z 33702KT 9999 SKC 15/04 Q1019
 
(N.O.A.)  LGG9 - (PPC) Amyntaio  (Station:1220)
(PPC: Public Power Corporation)
Amyntaio - Florina - W. Macedonia
Lat: 40.61 - Long: 21.66 - Elev: 680m
Distance from Vouhead Weather: (W) 112km
Updated: 02/11/2017 14:04
NOT CURRENT METAR
Clear
Clear
 Wind from NW
Wind: NW 4 km/h
Temperature: 14°C
Dew Point: 4°C
Humidity: 51%
Barometer: 1020 hPa
Clouds: Clear
Visibility: 10 km
2017/11/02 12:04 1220 021204Z 31502KT 9999 SKC 14/04 Q1020
(N.O.A.)  LG48 - Nevrokopi  (Station:1044)
Kato Nevrokopi - Drama - E. Macedonia & Thrace
Lat: 41.34 - Long: 23.87 - Elev: 590m
Distance from Vouhead Weather: (NE) 114km
Updated: 02/11/2017 14:04
NOT CURRENT METAR
Partly Cloudy
Partly Cloudy
 Wind from W
Wind: W 6 km/h
Temperature: 12°C
Dew Point: 5°C
Humidity: 63%
Barometer: 1020 hPa
Clouds: Partly Cloudy
Visibility: 10 km
Cloud analysis: Partly Cloudy 884m
2017/11/02 12:04 1044 021204Z 27003KT 9999 SCT029 12/05 Q1020
 
(N.O.A.)  LGL6 - Larissa  (Station:1331)
Larissa - Larissa - Thessaly
Lat: 39.63 - Long: 22.40 - Elev: 82m
Distance from Vouhead Weather: (SSW) 115km
Updated: 02/11/2017 14:04
NOT CURRENT METAR
Few Clouds
Few Clouds
 Wind from calm
Wind: Calm 
Temperature: 16°C
Dew Point: 6°C
Humidity: 52%
Barometer: 1020 hPa
Clouds: Few Clouds
Visibility: 10 km
Cloud analysis: Few Clouds 1250m
2017/11/02 12:04 1331 021204Z 00000KT 9999 FEW041 16/06 Q1020
(P.W.S.)  Drama  (Station:1212)
Drama - Drama - E. Macedonia & Thrace
Lat: 41.16 - Long: 24.10 - Elev: 115m
Distance from Vouhead Weather: (ENE) 117km
Updated: 07/05/2022 14:21
NOT CURRENT METAR
Partly Cloudy
Partly Cloudy
 Wind from SE
Wind: SE 7 km/h
Temperature: 21°C
Dew Point: 11°C
Humidity: 53%
Barometer: 1021 hPa
Clouds: Partly Cloudy
Visibility: 10 km
Cloud analysis: Partly Cloudy 1219m
2022/05/07 11:21 1212 071121Z 13504KT 9999 SCT040 21/11 Q1021
 
(P.W.S.)  Falakro Mountain  (Station:1295)
(Ski Resort)
Prosotsani - Drama - E. Macedonia & Thrace
Lat: 41.31 - Long: 24.07 - Elev: 1731m
Distance from Vouhead Weather: (NE) 123km
Updated: 02/04/2017 16:04
NOT CURRENT METAR
Few Clouds
Few Clouds
 Wind from SSW
Wind: SSW 17 km/h
Temperature: 7°C
Wind Chill: 4°C
Dew Point: 3°C
Humidity: 76%
Barometer: 1023 hPa
Clouds: Few Clouds
Visibility: 9 km
Cloud analysis: Few Clouds 549m
2017/04/02 13:04 1295 021304Z 20209KT 9000 FEW018 07/03 Q1023
(P.W.S.)  Falakro Mountain  (Station:1364)
(Kartalka peak)
Prosotsani - Drama - E. Macedonia & Thrace
Lat: 41.30 - Long: 24.08 - Elev: 2111m
Distance from Vouhead Weather: (NE) 123km
Updated: 13/03/2014 21:52
NOT CURRENT METAR
Clear
Clear
 Wind from N
Wind: N 22 km/h
Temperature: 28°C
Heat Index: 28°C
Dew Point: 16°C
Humidity: 48%
Barometer: 999 hPa
Clouds: Clear
Visibility: 10 km
2014/03/13 19:52 1364 131952Z 36012KT 9999 SKC 28/16 Q0999
 
(N.O.A.)  LGG3 - Zagora  (Station:1014)
Zagora Mouresi - Magnesia - Thessaly
Lat: 39.45 - Long: 23.10 - Elev: 505m
Distance from Vouhead Weather: (S) 124km
Updated: 02/11/2017 14:03
NOT CURRENT METAR
Few Clouds
Few Clouds
 Wind from ESE
Wind: ESE 4 km/h
Temperature: 12°C
Dew Point: 7°C
Humidity: 72%
Barometer: 1022 hPa
Clouds: Few Clouds
Visibility: 9 km
Cloud analysis: Few Clouds 640m
2017/11/02 12:03 1014 021203Z 11202KT 9000 FEW021 12/07 Q1022
(N.O.A.)  LGF0 - Variko  (Station:1252)
Amyntaio - Florina - W. Macedonia
Lat: 40.54 - Long: 21.50 - Elev: 780m
Distance from Vouhead Weather: (W) 125km
Updated: 02/11/2017 14:04
NOT CURRENT METAR
Clear
Clear
 Wind from ENE
Wind: ENE 2 km/h
Temperature: 15°C
Dew Point: 5°C
Humidity: 51%
Barometer: 1021 hPa
Clouds: Clear
Visibility: 10 km
2017/11/02 12:04 1252 021204Z 06701KT 9999 SKC 15/05 Q1021
 
(P.W.S.)  Kavala  (Station:1041)
Kavala - Kavala - E. Macedonia & Thrace
Lat: 40.94 - Long: 24.40 - Elev: 90m
Distance from Vouhead Weather: (ENE) 127km
Updated: 19/05/2022 08:23
NOT CURRENT METAR
Few Clouds
Few Clouds
 Wind from NE
Wind: NE 4 km/h
Temperature: 15°C
Dew Point: 7°C
Humidity: 59%
Barometer: 1028 hPa
Clouds: Few Clouds
Visibility: 10 km
Cloud analysis: Few Clouds 1067m
2022/05/19 05:23 1041 190523Z 04502KT 9999 FEW035 15/07 Q1028
(N.O.A.)  LG** - Kleisoura  (Station:1360)
Kastoria - Kastoria - W. Macedonia
Lat: 40.54 - Long: 21.47 - Elev: 1160m
Distance from Vouhead Weather: (W) 128km
Updated: 29/10/2017 12:19
NOT CURRENT METAR
Few Clouds
Few Clouds
 Wind from W
Wind: W 13 km/h
Temperature: 6°C
Wind Chill: 3°C
Dew Point: 1°C
Humidity: 71%
Barometer: 1011 hPa
Clouds: Few Clouds
Visibility: 10 km
Cloud analysis: Few Clouds 640m
2017/10/29 10:19 1360 291019Z 27007KT 9999 FEW021 06/01 Q1011
 
(P.W.S.)  Chania  (Station:1188)
Volos - Magnesia - Thessaly
Lat: 39.39 - Long: 23.06 - Elev: 1180m
Distance from Vouhead Weather: (S) 130km
Updated: 07/03/2014 20:05
NOT CURRENT METAR
Overcast
Overcast
 Wind from calm
Wind: Calm 
Temperature: 13°C
Dew Point: 9°C
Humidity: 77%
Barometer: 1015 hPa
Clouds: Overcast
Visibility: 7 km
Cloud analysis: Overcast 366m
2014/03/07 18:05 1188 071805Z 00000KT 7000 OVC012 13/09 Q1015
(P.W.S.)  Portaria  (Station:1097)
Volos - Magnesia - Thessaly
Lat: 39.39 - Long: 23.00 - Elev: 678m
Distance from Vouhead Weather: (S) 130km
Updated: 10/03/2021 10:19
NOT CURRENT METAR
Mostly Cloudy
Mostly Cloudy
 Wind from W
Wind: W 2 km/h
Temperature: 9°C
Dew Point: 4°C
Humidity: 71%
Barometer: 1009 hPa
Clouds: Mostly Cloudy
Visibility: 9 km
Cloud analysis: Mostly Cloudy 579m
2021/03/10 08:19 1097 100819Z 27001KT 9000 BKN019 09/04 Q1009
 
(P.W.S.)  Vounochori  (Station:1235)
Kavala - Kavala - E. Macedonia & Thrace
Lat: 41.07 - Long: 24.37 - Elev: 830m
Distance from Vouhead Weather: (ENE) 130km
Updated: 07/02/2019 06:19
NOT CURRENT METAR
Overcast
Overcast
 Wind from NE
Wind: NE 4 km/h
Temperature: 2°C
Dew Point: 0°C
Humidity: 87%
Barometer: 1020 hPa
Clouds: Overcast
Visibility: 7 km
Cloud analysis: Overcast 2438m
2019/02/07 04:19 1235 070419Z 04502KT 7000 OVC080 02/00 Q1020
(N.O.A.)  LG51 - Volos  (Station:1010)
Volos - Magnesia - Thessaly
Lat: 39.37 - Long: 22.96 - Elev: 52m
Distance from Vouhead Weather: (S) 132km
Updated: 02/11/2017 14:03
NOT CURRENT METAR
Clear
Clear
 Wind from NNW
Wind: NNW 4 km/h
Temperature: 16°C
Dew Point: 5°C
Humidity: 48%
Barometer: 1020 hPa
Clouds: Clear
Visibility: 10 km
2017/11/02 12:03 1010 021203Z 33702KT 9999 SKC 16/05 Q1020
 
(P.W.S.)  Volos(Center)  (Station:1318)
Volos - Magnesia - Thessaly
Lat: 39.36 - Long: 22.95 - Elev: 15m
Distance from Vouhead Weather: (S) 133km
Updated: 15/01/2017 10:49
NOT CURRENT METAR
Clear
Clear
 Wind from NNW
Wind: NNW 2 km/h
Temperature: 6°C
Dew Point: 3°C
Humidity: 81%
Barometer: 1015 hPa
Clouds: Clear
Visibility: 8 km
2017/01/15 08:49 1318 150849Z 33701KT 8000 SKC 06/03 Q1015
(N.O.A.)  LG63 - Florina  (Station:1049)
Florina - Florina - W. Macedonia
Lat: 40.78 - Long: 21.41 - Elev: 637m
Distance from Vouhead Weather: (WNW) 134km
Updated: 02/11/2017 14:04
NOT CURRENT METAR
Few Clouds
Few Clouds
 Wind from calm
Wind: Calm 
Temperature: 13°C
Dew Point: 4°C
Humidity: 55%
Barometer: 1021 hPa
Clouds: Few Clouds
Visibility: 10 km
Cloud analysis: Few Clouds 1036m
2017/11/02 12:04 1049 021204Z 00000KT 9999 FEW034 13/04 Q1021
 
(N.O.A.)  LGF2 - Grevena  (Station:1198)
(1st Professional Lyceum of Grevena)
Grevena - Grevena - W. Macedonia
Lat: 40.08 - Long: 21.43 - Elev: 510m
Distance from Vouhead Weather: (WSW) 142km
Updated: 02/11/2017 14:04
NOT CURRENT METAR
Few Clouds
Few Clouds
 Wind from calm
Wind: Calm 
Temperature: 15°C
Dew Point: 5°C
Humidity: 51%
Barometer: 1021 hPa
Clouds: Few Clouds
Visibility: 10 km
Cloud analysis: Few Clouds 1128m
2017/11/02 12:04 1198 021204Z 00000KT 9999 FEW037 15/05 Q1021
(N.O.A.)  LGC0 - Kastoria  (Station:1162)
Kastoria - Kastoria - W. Macedonia
Lat: 40.50 - Long: 21.32 - Elev: 623m
Distance from Vouhead Weather: (W) 144km
Updated: 02/11/2017 14:04
NOT CURRENT METAR
Few Clouds
Few Clouds
 Wind from SE
Wind: SE 2 km/h
Temperature: 13°C
Dew Point: 5°C
Humidity: 59%
Barometer: 1020 hPa
Clouds: Few Clouds
Visibility: 10 km
Cloud analysis: Few Clouds 914m
2017/11/02 12:04 1162 021204Z 13501KT 9999 FEW030 13/05 Q1020
 
(P.W.S.)  Kalampaka  (Station:1012)
Kalampaka - Trikala - Thessaly
Lat: 39.71 - Long: 21.62 - Elev: 215m
Distance from Vouhead Weather: (WSW) 149km
Updated: 17/05/2019 11:34
NOT CURRENT METAR
Partly Cloudy
Partly Cloudy
 Wind from N
Wind: N 6 km/h
Temperature: 20°C
Dew Point: 9°C
Humidity: 49%
Barometer: 1007 hPa
Clouds: Partly Cloudy
Visibility: 10 km
Cloud analysis: Partly Cloudy 1402m
2019/05/17 08:34 1012 170834Z 36003KT 9999 SCT046 20/09 Q1007
(P.W.S.)  Karditsa  (Station:1118)
Karditsa - Karditsa - Thessaly
Lat: 39.37 - Long: 21.92 - Elev: 100m
Distance from Vouhead Weather: (SSW) 160km
Updated: 08/02/2016 23:34
NOT CURRENT METAR
Clear
Clear
 Wind from SW
Wind: SW 2 km/h
Temperature: 7°C
Dew Point: 2°C
Humidity: 71%
Barometer: 1027 hPa
Clouds: Clear
Visibility: 10 km
2016/02/08 21:34 1118 082134Z 22501KT 9999 SKC 07/02 Q1027
 
(P.W.S.)  Skiathos  (Station:1201)
(Amateur Astronomy Observatory NUNKI)
Skiathos - Sporades - Thessaly
Lat: 39.18 - Long: 23.51 - Elev: 35m
Distance from Vouhead Weather: (SSE) 161km
Updated: 10/09/2019 12:20
NOT CURRENT METAR
Few Clouds
Few Clouds
 Wind from ENE
Wind: ENE 9 km/h
Temperature: 26°C
Dew Point: 20°C
Humidity: 70%
Barometer: 1015 hPa
Clouds: Few Clouds
Visibility: 8 km
Cloud analysis: Few Clouds 792m
2019/09/10 09:20 1201 100920Z 06705KT 8000 FEW026 26/20 Q1015
(P.W.S.)  Pteleos  (Station:1016)
Almyros - Magnesia - Thessaly
Lat: 39.05 - Long: 22.95 - Elev: 125m
Distance from Vouhead Weather: (S) 168km
Updated: 01/11/2017 21:18
NOT CURRENT METAR
Partly Cloudy
Partly Cloudy
 Wind from NNE
Wind: NNE 9 km/h
Temperature: 9°C
Wind Chill: 7°C
Dew Point: 2°C
Humidity: 62%
Barometer: 1024 hPa
Clouds: Partly Cloudy
Visibility: 10 km
Cloud analysis: Partly Cloudy 823m
2017/11/01 19:18 1016 011918Z 02205KT 9999 SCT027 09/02 Q1024
 
(N.O.A.)  LG82 - Vasilitsa  (Station:1005)
(Ski Resort)
Grevena - Grevena - W. Macedonia
Lat: 40.04 - Long: 21.08 - Elev: 1780m
Distance from Vouhead Weather: (WSW) 171km
Updated: 06/07/2017 23:03
NOT CURRENT METAR
Clear
Clear
 Wind from NE
Wind: NE 6 km/h
Temperature: 17°C
Dew Point: 9°C
Humidity: 59%
Barometer: 1017 hPa
Clouds: Clear
Visibility: 10 km
2017/07/06 20:03 1005 062003Z 04503KT 9999 SKC 17/09 Q1017
(N.O.A.)  LGE2 - Pertouli  (Station:1179)
Pyli - Trikala - Thessaly
Lat: 39.54 - Long: 21.46 - Elev: 1170m
Distance from Vouhead Weather: (SW) 172km
Updated: 24/08/2017 18:19
NOT CURRENT METAR
Partly Cloudy
Partly Cloudy
 Wind from calm
Wind: Calm 
Temperature: 21°C
Dew Point: 11°C
Humidity: 53%
Barometer: 1016 hPa
Clouds: Partly Cloudy
Visibility: 10 km
Cloud analysis: Partly Cloudy 1219m
2017/08/24 15:19 1179 241519Z 00000KT 9999 SCT040 21/11 Q1016
 
(N.O.A.)  LG80 - Skopelos  (Station:1018)
Skopelos - Sporades - Thessaly
Lat: 39.12 - Long: 23.73 - Elev: 60m
Distance from Vouhead Weather: (SSE) 173km
Updated: 19/05/2022 08:23
NOT CURRENT METAR
Partly Cloudy
Partly Cloudy
 Wind from ENE
Wind: ENE 4 km/h
Temperature: 16°C
Dew Point: 9°C
Humidity: 63%
Barometer: 1029 hPa
Clouds: Partly Cloudy
Visibility: 10 km
Cloud analysis: Partly Cloudy 884m
2022/05/19 05:23 1018 190523Z 06702KT 9999 SCT029 16/09 Q1029
(N.O.A.)  LGC6 - Xanthi  (Station:1156)
(Biological Treatment Unit)
Xanthi - Xanthi - E. Macedonia & Thrace
Lat: 41.09 - Long: 24.88 - Elev: 40m
Distance from Vouhead Weather: (ENE) 171km
Updated: 02/11/2017 14:04
NOT CURRENT METAR
Few Clouds
Few Clouds
 Wind from WSW
Wind: WSW 2 km/h
Temperature: 15°C
Dew Point: 7°C
Humidity: 59%
Barometer: 1021 hPa
Clouds: Few Clouds
Visibility: 10 km
Cloud analysis: Few Clouds 975m
2017/11/02 12:04 1156 021204Z 24701KT 9999 FEW032 15/07 Q1021
 
(S.R.F.)  Samarina  (Station:1205)
Grevena - Grevena - W. Macedonia
Lat: 40.10 - Long: 21.02 - Elev: 1430m
Distance from Vouhead Weather: (WSW) 174km
Updated: 14/09/2017 04:04
NOT CURRENT METAR
Partly Cloudy
Partly Cloudy
 Wind from N
Wind: N 2 km/h
Temperature: 9°C
Dew Point: 6°C
Humidity: 82%
Barometer: 767 hPa
Clouds: Partly Cloudy
Visibility: 8 km
Cloud analysis: Partly Cloudy 427m
2017/09/14 01:04 1205 140104Z 36001KT 8000 SCT014 09/06 Q0767
(N.O.A.)  LGN2 - Alonnisos  (Station:1345)
Alonnisos - Sporades - Thessaly
Lat: 39.15 - Long: 23.87 - Elev: 50m
Distance from Vouhead Weather: (SSE) 175km
Updated: 26/10/2017 13:49
NOT CURRENT METAR
Partly Cloudy
Partly Cloudy
 Wind from NE
Wind: NE 9 km/h
Temperature: 16°C
Dew Point: 12°C
Humidity: 77%
Barometer: 1027 hPa
Clouds: Partly Cloudy
Visibility: 8 km
Cloud analysis: Partly Cloudy 488m
2017/10/26 10:49 1345 261049Z 04505KT 8000 SCT016 16/12 Q1027
 
(N.O.A.)  LGL7 - Kastania  (Station:1329)
(Lake Plastira)
Karditsa - Karditsa - Thessaly
Lat: 39.24 - Long: 21.79 - Elev: 867m
Distance from Vouhead Weather: (SSW) 178km
Updated: 26/06/2017 14:04
NOT CURRENT METAR
Thunderstorm, Partly cloudy
Thunderstorm, Partly cloudy
 Wind from NE
Wind: NE 6 km/h
Temperature: 25°C
Dew Point: 18°C
Humidity: 65%
Barometer: 1007 hPa
Summary: Thunderstorm
Clouds: Partly Cloudy
Visibility: 9 km
Cloud analysis: Partly Cloudy 884m
2017/06/26 11:04 1329 261104Z 04503KT 9000 TS SCT029 25/18 Q1007
(N.O.A.)  LGL8 - Gramos  (Station:1320)
(Mountain Hut)
Nestorio - Kastoria - W. Macedonia
Lat: 40.39 - Long: 20.84 - Elev: 1385m
Distance from Vouhead Weather: (WSW) 182km
Updated: 08/05/2022 00:51
NOT CURRENT METAR
Partly Cloudy
Partly Cloudy
 Wind from SSW
Wind: SSW 2 km/h
Temperature: 9°C
Dew Point: 4°C
Humidity: 71%
Barometer: 1018 hPa
Clouds: Partly Cloudy
Visibility: 9 km
Cloud analysis: Partly Cloudy 610m
2022/05/07 21:51 1320 072151Z 20201KT 9000 SCT020 09/04 Q1018
 
(N.O.A.)  LGC1 - Samothraki  (Station:1174)
Samothraki - Evros - E. Macedonia & Thrace
Lat: 40.47 - Long: 25.48 - Elev: 115m
Distance from Vouhead Weather: (E) 211km
Updated: 02/11/2017 14:04
NOT CURRENT METAR
Few Clouds
Few Clouds
 Wind from NW
Wind: NW 6 km/h
Temperature: 14°C
Dew Point: 7°C
Humidity: 63%
Barometer: 728 hPa
Clouds: Few Clouds
Visibility: 10 km
Cloud analysis: Few Clouds 792m
2017/11/02 12:04 1150 021204Z 31503KT 9999 FEW026 14/07 Q0728
(P.W.S.)  Komotini  (Station:1130)
Komotini - Rhodope - E. Macedonia & Thrace
Lat: 41.11 - Long: 25.40 - Elev: 40m
Distance from Vouhead Weather: (ENE) 213km
Updated: 19/05/2022 08:23
NOT CURRENT METAR
Few Clouds
Few Clouds
 Wind from calm
Wind: Calm 
Temperature: 14°C
Dew Point: 7°C
Humidity: 63%
Barometer: 1026 hPa
Clouds: Few Clouds
Visibility: 10 km
Cloud analysis: Few Clouds 823m
2022/05/19 05:23 1130 190523Z 00000KT 9999 FEW027 14/07 Q1026
 
(N.O.A.)  LGD8 - Alexandroupoli  (Station:1174)
Alexandroupoli - Evros - E. Macedonia & Thrace
Lat: 40.86 - Long: 25.87 - Elev: 48m
Distance from Vouhead Weather: (ENE) 247km
Updated: 02/11/2017 14:04
NOT CURRENT METAR
Few Clouds
Few Clouds
 Wind from SSW
Wind: SSW 6 km/h
Temperature: 14°C
Dew Point: 6°C
Humidity: 59%
Barometer: 1021 hPa
Clouds: Few Clouds
Visibility: 10 km
Cloud analysis: Few Clouds 914m
2017/11/02 12:04 1174 021204Z 20203KT 9999 FEW030 14/06 Q1021
(N.O.A.)  LGL2 - Metaxades  (Station:1325)
Didymoticho - Evros - E. Macedonia & Thrace
Lat: 41.42 - Long: 26.22 - Elev: 162m
Distance from Vouhead Weather: (ENE) 289km
Updated: 02/11/2017 14:04
NOT CURRENT METAR
Partly Cloudy
Partly Cloudy
 Wind from SE
Wind: SE 2 km/h
Temperature: 14°C
Dew Point: 5°C
Humidity: 55%
Barometer: 1020 hPa
Clouds: Partly Cloudy
Visibility: 10 km
Cloud analysis: Partly Cloudy 1036m
2017/11/02 12:04 1325 021204Z 13501KT 9999 SCT034 14/05 Q1020
 
(P.W.S.)  Didymoticho  (Station:1202)
Didymoticho - Evros - E. Macedonia & Thrace
Lat: 41.35 - Long: 26.50 - Elev: 52m
Distance from Vouhead Weather: (ENE) 309km
Updated: 04/07/2020 14:49
NOT CURRENT METAR
Few Clouds
Few Clouds
 Wind from calm
Wind: Calm 
Temperature: 34°C
Dew Point: 12°C
Humidity: 26%
Barometer: 1011 hPa
Clouds: Few Clouds
Visibility: 10 km
Cloud analysis: Few Clouds 2652m
2020/07/04 11:49 1202 041149Z 00000KT 9999 FEW087 34/12 Q1011
(N.O.A.)  LG31 - Orestiada  (Station:1020)
Orestiada - Evros - E. Macedonia & Thrace
Lat: 41.51 - Long: 26.53 - Elev: 22m
Distance from Vouhead Weather: (ENE) 316km
Updated: 02/11/2017 14:03
NOT CURRENT METAR
Few Clouds
Few Clouds
 Wind from S
Wind: S 4 km/h
Temperature: 14°C
Dew Point: 4°C
Humidity: 51%
Barometer: 1019 hPa
Clouds: Few Clouds
Visibility: 10 km
Cloud analysis: Few Clouds 1128m
2017/11/02 12:03 1020 021203Z 18002KT 9999 FEW037 14/04 Q1019
METAR Reports Source:  www.metar.gr
   This data is not to be used for protection of life and property  
GO TO IONIA GO TO REA GO TO KIFISSIA GO TO SYROS GO TO DEXAMENI (BOLTEK) GO TO DEXAMENI (LR) GO TO LARISSA General Secretariat for Civil Protection European Emergency Call Number Video for Kastelorizo(Megisti) from ERT(state-TV) archives Municipality of Megisti website See it bigger